sensor_id;sensor_type;location;lat;lon;timestamp;temperature;humidity
42333;DHT22;27984;51.476;5.702;2023-04-15T00:01:56;8.20;99.90
42333;DHT22;27984;51.476;5.702;2023-04-15T00:04:22;8.10;99.90
42333;DHT22;27984;51.476;5.702;2023-04-15T00:06:51;8.10;99.90
42333;DHT22;27984;51.476;5.702;2023-04-15T00:09:18;8.20;99.90
42333;DHT22;27984;51.476;5.702;2023-04-15T00:11:44;8.10;99.90
42333;DHT22;27984;51.476;5.702;2023-04-15T00:14:12;8.00;99.90
42333;DHT22;27984;51.476;5.702;2023-04-15T00:16:38;8.00;99.90
42333;DHT22;27984;51.476;5.702;2023-04-15T00:19:03;7.90;99.90
42333;DHT22;27984;51.476;5.702;2023-04-15T00:21:29;7.90;99.90
42333;DHT22;27984;51.476;5.702;2023-04-15T00:23:54;7.90;99.90
42333;DHT22;27984;51.476;5.702;2023-04-15T00:26:20;7.80;99.90
42333;DHT22;27984;51.476;5.702;2023-04-15T00:28:46;7.70;99.90
42333;DHT22;27984;51.476;5.702;2023-04-15T00:31:12;7.70;99.90
42333;DHT22;27984;51.476;5.702;2023-04-15T00:33:37;7.60;99.90
42333;DHT22;27984;51.476;5.702;2023-04-15T00:36:03;7.50;99.90
42333;DHT22;27984;51.476;5.702;2023-04-15T00:38:30;7.50;99.90
42333;DHT22;27984;51.476;5.702;2023-04-15T00:40:55;7.50;99.90
42333;DHT22;27984;51.476;5.702;2023-04-15T00:43:21;7.50;99.90
42333;DHT22;27984;51.476;5.702;2023-04-15T00:45:47;7.40;99.90
42333;DHT22;27984;51.476;5.702;2023-04-15T00:48:12;7.50;99.90
42333;DHT22;27984;51.476;5.702;2023-04-15T00:50:38;7.50;99.90
42333;DHT22;27984;51.476;5.702;2023-04-15T00:53:03;7.50;99.90
42333;DHT22;27984;51.476;5.702;2023-04-15T00:55:29;7.40;99.90
42333;DHT22;27984;51.476;5.702;2023-04-15T00:57:56;7.40;99.90
42333;DHT22;27984;51.476;5.702;2023-04-15T01:00:22;7.40;99.90
42333;DHT22;27984;51.476;5.702;2023-04-15T01:02:48;7.40;99.90
42333;DHT22;27984;51.476;5.702;2023-04-15T01:05:15;7.40;99.90
42333;DHT22;27984;51.476;5.702;2023-04-15T01:07:42;7.40;99.90
42333;DHT22;27984;51.476;5.702;2023-04-15T01:10:08;7.40;99.90
42333;DHT22;27984;51.476;5.702;2023-04-15T01:12:34;7.30;99.90
42333;DHT22;27984;51.476;5.702;2023-04-15T01:15:01;7.30;99.90
42333;DHT22;27984;51.476;5.702;2023-04-15T01:17:27;7.30;99.90
42333;DHT22;27984;51.476;5.702;2023-04-15T01:19:55;7.30;99.90
42333;DHT22;27984;51.476;5.702;2023-04-15T01:22:21;7.30;99.90
42333;DHT22;27984;51.476;5.702;2023-04-15T01:24:59;7.30;99.90
42333;DHT22;27984;51.476;5.702;2023-04-15T01:27:26;7.30;99.90
42333;DHT22;27984;51.476;5.702;2023-04-15T01:29:52;7.20;99.90
42333;DHT22;27984;51.476;5.702;2023-04-15T01:32:18;7.20;99.90
42333;DHT22;27984;51.476;5.702;2023-04-15T01:34:44;7.10;99.90
42333;DHT22;27984;51.476;5.702;2023-04-15T01:37:10;7.00;99.90
42333;DHT22;27984;51.476;5.702;2023-04-15T01:39:36;7.00;99.90
42333;DHT22;27984;51.476;5.702;2023-04-15T01:42:01;7.00;99.90
42333;DHT22;27984;51.476;5.702;2023-04-15T01:44:27;7.00;99.90
42333;DHT22;27984;51.476;5.702;2023-04-15T01:46:53;7.00;99.90
42333;DHT22;27984;51.476;5.702;2023-04-15T01:49:18;7.00;99.90
42333;DHT22;27984;51.476;5.702;2023-04-15T01:51:44;7.00;99.90
42333;DHT22;27984;51.476;5.702;2023-04-15T01:54:09;7.00;99.90
42333;DHT22;27984;51.476;5.702;2023-04-15T01:56:35;6.90;99.90
42333;DHT22;27984;51.476;5.702;2023-04-15T01:59:01;7.00;99.90
42333;DHT22;27984;51.476;5.702;2023-04-15T02:01:28;6.90;99.90
42333;DHT22;27984;51.476;5.702;2023-04-15T02:03:53;6.80;99.90
42333;DHT22;27984;51.476;5.702;2023-04-15T02:06:19;6.80;99.90
42333;DHT22;27984;51.476;5.702;2023-04-15T02:08:45;6.70;99.90
42333;DHT22;27984;51.476;5.702;2023-04-15T02:11:10;6.80;99.90
42333;DHT22;27984;51.476;5.702;2023-04-15T02:13:36;6.70;99.90
42333;DHT22;27984;51.476;5.702;2023-04-15T02:16:02;6.70;99.90
42333;DHT22;27984;51.476;5.702;2023-04-15T02:18:27;6.70;99.90
42333;DHT22;27984;51.476;5.702;2023-04-15T02:20:53;6.70;99.90
42333;DHT22;27984;51.476;5.702;2023-04-15T02:23:19;6.60;99.90
42333;DHT22;27984;51.476;5.702;2023-04-15T02:25:45;6.60;99.90
42333;DHT22;27984;51.476;5.702;2023-04-15T02:28:11;6.50;99.90
42333;DHT22;27984;51.476;5.702;2023-04-15T02:30:37;6.50;99.90
42333;DHT22;27984;51.476;5.702;2023-04-15T02:33:02;6.50;99.90
42333;DHT22;27984;51.476;5.702;2023-04-15T02:35:28;6.40;99.90
42333;DHT22;27984;51.476;5.702;2023-04-15T02:37:54;6.40;99.90
42333;DHT22;27984;51.476;5.702;2023-04-15T02:40:19;6.40;99.90
42333;DHT22;27984;51.476;5.702;2023-04-15T02:42:45;6.30;99.90
42333;DHT22;27984;51.476;5.702;2023-04-15T02:45:11;6.40;99.90
42333;DHT22;27984;51.476;5.702;2023-04-15T02:47:37;6.30;99.90
42333;DHT22;27984;51.476;5.702;2023-04-15T02:50:07;6.30;99.90
42333;DHT22;27984;51.476;5.702;2023-04-15T02:52:34;6.30;99.90
42333;DHT22;27984;51.476;5.702;2023-04-15T02:54:59;6.20;99.90
42333;DHT22;27984;51.476;5.702;2023-04-15T02:57:27;6.20;99.90
42333;DHT22;27984;51.476;5.702;2023-04-15T02:59:53;6.20;99.90
42333;DHT22;27984;51.476;5.702;2023-04-15T03:02:19;6.20;99.90
42333;DHT22;27984;51.476;5.702;2023-04-15T03:04:44;6.10;99.90
42333;DHT22;27984;51.476;5.702;2023-04-15T03:07:10;6.10;99.90
42333;DHT22;27984;51.476;5.702;2023-04-15T03:09:35;6.10;99.90
42333;DHT22;27984;51.476;5.702;2023-04-15T03:12:01;6.00;99.90
42333;DHT22;27984;51.476;5.702;2023-04-15T03:14:27;6.00;99.90
42333;DHT22;27984;51.476;5.702;2023-04-15T03:16:52;5.90;99.90
42333;DHT22;27984;51.476;5.702;2023-04-15T03:19:18;5.90;99.90
42333;DHT22;27984;51.476;5.702;2023-04-15T03:21:43;5.90;99.90
42333;DHT22;27984;51.476;5.702;2023-04-15T03:24:09;5.80;99.90
42333;DHT22;27984;51.476;5.702;2023-04-15T03:26:34;5.90;99.90
42333;DHT22;27984;51.476;5.702;2023-04-15T03:29:00;5.80;99.90
42333;DHT22;27984;51.476;5.702;2023-04-15T03:31:26;5.80;99.90
42333;DHT22;27984;51.476;5.702;2023-04-15T03:33:51;5.80;99.90
42333;DHT22;27984;51.476;5.702;2023-04-15T03:36:17;5.80;99.90
42333;DHT22;27984;51.476;5.702;2023-04-15T03:38:42;5.60;99.90
42333;DHT22;27984;51.476;5.702;2023-04-15T03:41:08;5.60;99.90
42333;DHT22;27984;51.476;5.702;2023-04-15T03:43:34;5.60;99.90
42333;DHT22;27984;51.476;5.702;2023-04-15T03:46:00;5.60;99.90
42333;DHT22;27984;51.476;5.702;2023-04-15T03:48:25;5.50;99.90
42333;DHT22;27984;51.476;5.702;2023-04-15T03:50:51;5.50;99.90
42333;DHT22;27984;51.476;5.702;2023-04-15T03:53:16;5.50;99.90
42333;DHT22;27984;51.476;5.702;2023-04-15T03:55:42;5.50;99.90
42333;DHT22;27984;51.476;5.702;2023-04-15T03:58:07;5.40;99.90
42333;DHT22;27984;51.476;5.702;2023-04-15T04:00:37;5.40;99.90
42333;DHT22;27984;51.476;5.702;2023-04-15T04:03:03;5.30;99.90
42333;DHT22;27984;51.476;5.702;2023-04-15T04:05:28;5.40;99.90
42333;DHT22;27984;51.476;5.702;2023-04-15T04:07:54;5.30;99.90
42333;DHT22;27984;51.476;5.702;2023-04-15T04:10:20;5.30;99.90
42333;DHT22;27984;51.476;5.702;2023-04-15T04:12:45;5.30;99.90
42333;DHT22;27984;51.476;5.702;2023-04-15T04:15:11;5.30;99.90
42333;DHT22;27984;51.476;5.702;2023-04-15T04:17:36;5.20;99.90
42333;DHT22;27984;51.476;5.702;2023-04-15T04:20:02;5.10;99.90
42333;DHT22;27984;51.476;5.702;2023-04-15T04:22:28;5.10;99.90
42333;DHT22;27984;51.476;5.702;2023-04-15T04:24:53;5.10;99.90
42333;DHT22;27984;51.476;5.702;2023-04-15T04:27:19;5.10;99.90
42333;DHT22;27984;51.476;5.702;2023-04-15T04:29:44;5.00;99.90
42333;DHT22;27984;51.476;5.702;2023-04-15T04:32:12;5.00;99.90
42333;DHT22;27984;51.476;5.702;2023-04-15T04:34:37;5.00;99.90
42333;DHT22;27984;51.476;5.702;2023-04-15T04:37:03;5.00;99.90
42333;DHT22;27984;51.476;5.702;2023-04-15T04:39:28;5.10;99.90
42333;DHT22;27984;51.476;5.702;2023-04-15T04:41:54;5.00;99.90
42333;DHT22;27984;51.476;5.702;2023-04-15T04:44:20;5.00;99.90
42333;DHT22;27984;51.476;5.702;2023-04-15T04:46:46;4.90;99.90
42333;DHT22;27984;51.476;5.702;2023-04-15T04:49:11;4.90;99.90
42333;DHT22;27984;51.476;5.702;2023-04-15T04:51:37;4.90;99.90
42333;DHT22;27984;51.476;5.702;2023-04-15T04:54:03;4.90;99.90
42333;DHT22;27984;51.476;5.702;2023-04-15T04:56:28;4.90;99.90
42333;DHT22;27984;51.476;5.702;2023-04-15T04:58:54;4.90;99.90
42333;DHT22;27984;51.476;5.702;2023-04-15T05:01:19;5.00;99.90
42333;DHT22;27984;51.476;5.702;2023-04-15T05:03:45;5.00;99.90
42333;DHT22;27984;51.476;5.702;2023-04-15T05:06:11;5.10;99.90
42333;DHT22;27984;51.476;5.702;2023-04-15T05:08:36;5.10;99.90
42333;DHT22;27984;51.476;5.702;2023-04-15T05:11:02;5.10;99.90
42333;DHT22;27984;51.476;5.702;2023-04-15T05:13:28;5.20;99.90
42333;DHT22;27984;51.476;5.702;2023-04-15T05:15:54;5.30;99.90
42333;DHT22;27984;51.476;5.702;2023-04-15T05:18:20;5.40;99.90
42333;DHT22;27984;51.476;5.702;2023-04-15T05:20:45;5.40;99.90
42333;DHT22;27984;51.476;5.702;2023-04-15T05:23:11;5.50;99.90
42333;DHT22;27984;51.476;5.702;2023-04-15T05:25:36;5.60;99.90
42333;DHT22;27984;51.476;5.702;2023-04-15T05:28:02;5.60;99.90
42333;DHT22;27984;51.476;5.702;2023-04-15T05:30:27;5.70;99.90
42333;DHT22;27984;51.476;5.702;2023-04-15T05:32:53;5.80;99.90
42333;DHT22;27984;51.476;5.702;2023-04-15T05:35:18;5.80;99.90
42333;DHT22;27984;51.476;5.702;2023-04-15T05:37:44;6.00;99.90
42333;DHT22;27984;51.476;5.702;2023-04-15T05:40:10;6.00;99.90
42333;DHT22;27984;51.476;5.702;2023-04-15T05:42:36;6.20;99.90
42333;DHT22;27984;51.476;5.702;2023-04-15T05:45:01;6.20;99.90
42333;DHT22;27984;51.476;5.702;2023-04-15T05:47:30;6.30;99.90
42333;DHT22;27984;51.476;5.702;2023-04-15T05:49:55;6.40;99.90
42333;DHT22;27984;51.476;5.702;2023-04-15T05:52:23;6.40;99.90
42333;DHT22;27984;51.476;5.702;2023-04-15T05:54:48;6.50;99.90
42333;DHT22;27984;51.476;5.702;2023-04-15T05:57:14;6.60;99.90
42333;DHT22;27984;51.476;5.702;2023-04-15T05:59:39;6.80;99.90
42333;DHT22;27984;51.476;5.702;2023-04-15T06:02:06;7.00;99.90
42333;DHT22;27984;51.476;5.702;2023-04-15T06:04:32;7.30;99.90
42333;DHT22;27984;51.476;5.702;2023-04-15T06:06:57;7.50;99.90
42333;DHT22;27984;51.476;5.702;2023-04-15T06:09:23;7.60;99.90
42333;DHT22;27984;51.476;5.702;2023-04-15T06:11:48;7.80;99.90
42333;DHT22;27984;51.476;5.702;2023-04-15T06:14:14;7.90;99.90
42333;DHT22;27984;51.476;5.702;2023-04-15T06:16:39;8.00;99.90
42333;DHT22;27984;51.476;5.702;2023-04-15T06:19:05;7.90;99.90
42333;DHT22;27984;51.476;5.702;2023-04-15T06:21:30;7.80;99.90
42333;DHT22;27984;51.476;5.702;2023-04-15T06:23:58;7.80;99.90
42333;DHT22;27984;51.476;5.702;2023-04-15T06:26:24;7.70;99.90
42333;DHT22;27984;51.476;5.702;2023-04-15T06:28:50;7.60;99.90
42333;DHT22;27984;51.476;5.702;2023-04-15T06:31:16;7.80;99.90
42333;DHT22;27984;51.476;5.702;2023-04-15T06:33:41;7.90;99.90
42333;DHT22;27984;51.476;5.702;2023-04-15T06:36:07;8.10;99.90
42333;DHT22;27984;51.476;5.702;2023-04-15T06:38:32;8.00;99.90
42333;DHT22;27984;51.476;5.702;2023-04-15T06:40:58;8.10;99.90
42333;DHT22;27984;51.476;5.702;2023-04-15T06:43:23;8.20;99.90
42333;DHT22;27984;51.476;5.702;2023-04-15T06:45:50;8.40;99.90
42333;DHT22;27984;51.476;5.702;2023-04-15T06:48:16;8.60;99.90
42333;DHT22;27984;51.476;5.702;2023-04-15T06:50:42;8.90;99.90
42333;DHT22;27984;51.476;5.702;2023-04-15T06:53:07;9.10;99.90
42333;DHT22;27984;51.476;5.702;2023-04-15T06:55:33;9.40;99.90
42333;DHT22;27984;51.476;5.702;2023-04-15T06:57:58;9.60;99.90
42333;DHT22;27984;51.476;5.702;2023-04-15T07:00:24;9.90;99.90
42333;DHT22;27984;51.476;5.702;2023-04-15T07:02:50;10.10;99.90
42333;DHT22;27984;51.476;5.702;2023-04-15T07:05:16;10.30;99.90
42333;DHT22;27984;51.476;5.702;2023-04-15T07:07:42;10.60;99.90
42333;DHT22;27984;51.476;5.702;2023-04-15T07:10:08;11.10;99.90
42333;DHT22;27984;51.476;5.702;2023-04-15T07:12:34;11.70;99.90
42333;DHT22;27984;51.476;5.702;2023-04-15T07:15:00;12.20;99.90
42333;DHT22;27984;51.476;5.702;2023-04-15T07:17:25;13.00;99.90
42333;DHT22;27984;51.476;5.702;2023-04-15T07:19:51;13.70;99.90
42333;DHT22;27984;51.476;5.702;2023-04-15T07:22:16;13.80;99.90
42333;DHT22;27984;51.476;5.702;2023-04-15T07:24:42;13.50;99.90
42333;DHT22;27984;51.476;5.702;2023-04-15T07:27:08;13.60;99.90
42333;DHT22;27984;51.476;5.702;2023-04-15T07:29:33;13.40;99.90
42333;DHT22;27984;51.476;5.702;2023-04-15T07:31:59;13.40;99.90
42333;DHT22;27984;51.476;5.702;2023-04-15T07:34:24;13.70;99.90
42333;DHT22;27984;51.476;5.702;2023-04-15T07:36:50;14.20;99.90
42333;DHT22;27984;51.476;5.702;2023-04-15T07:39:17;14.50;99.90
42333;DHT22;27984;51.476;5.702;2023-04-15T07:41:42;14.70;99.90
42333;DHT22;27984;51.476;5.702;2023-04-15T07:44:08;15.20;99.90
42333;DHT22;27984;51.476;5.702;2023-04-15T07:46:33;15.50;99.70
42333;DHT22;27984;51.476;5.702;2023-04-15T07:48:59;16.20;98.60
42333;DHT22;27984;51.476;5.702;2023-04-15T07:51:25;17.10;97.80
42333;DHT22;27984;51.476;5.702;2023-04-15T07:53:50;17.20;96.70
42333;DHT22;27984;51.476;5.702;2023-04-15T07:56:16;17.20;96.20
42333;DHT22;27984;51.476;5.702;2023-04-15T07:58:42;17.30;95.80
42333;DHT22;27984;51.476;5.702;2023-04-15T08:01:07;16.70;94.90
42333;DHT22;27984;51.476;5.702;2023-04-15T08:03:33;16.70;96.10
42333;DHT22;27984;51.476;5.702;2023-04-15T08:05:59;16.40;95.70
42333;DHT22;27984;51.476;5.702;2023-04-15T08:08:25;16.10;96.60
42333;DHT22;27984;51.476;5.702;2023-04-15T08:10:51;16.70;95.80
42333;DHT22;27984;51.476;5.702;2023-04-15T08:13:17;17.50;95.70
42333;DHT22;27984;51.476;5.702;2023-04-15T08:15:42;17.90;94.40
42333;DHT22;27984;51.476;5.702;2023-04-15T08:18:08;17.60;92.50
42333;DHT22;27984;51.476;5.702;2023-04-15T08:20:33;17.90;93.00
42333;DHT22;27984;51.476;5.702;2023-04-15T08:22:59;17.40;91.80
42333;DHT22;27984;51.476;5.702;2023-04-15T08:25:25;17.60;92.90
42333;DHT22;27984;51.476;5.702;2023-04-15T08:27:50;17.40;91.10
42333;DHT22;27984;51.476;5.702;2023-04-15T08:30:16;17.00;91.40
42333;DHT22;27984;51.476;5.702;2023-04-15T08:32:45;16.80;92.30
42333;DHT22;27984;51.476;5.702;2023-04-15T08:35:11;16.50;91.90
42333;DHT22;27984;51.476;5.702;2023-04-15T08:37:37;16.10;93.20
42333;DHT22;27984;51.476;5.702;2023-04-15T08:40:03;16.70;93.40
42333;DHT22;27984;51.476;5.702;2023-04-15T08:42:35;16.40;93.40
42333;DHT22;27984;51.476;5.702;2023-04-15T08:45:03;16.10;93.80
42333;DHT22;27984;51.476;5.702;2023-04-15T08:47:30;15.80;94.10
42333;DHT22;27984;51.476;5.702;2023-04-15T08:49:58;15.60;94.80
42333;DHT22;27984;51.476;5.702;2023-04-15T08:52:25;16.00;94.00
42333;DHT22;27984;51.476;5.702;2023-04-15T08:54:55;16.30;92.90
42333;DHT22;27984;51.476;5.702;2023-04-15T08:57:27;16.80;93.60
42333;DHT22;27984;51.476;5.702;2023-04-15T08:59:55;17.10;93.20
42333;DHT22;27984;51.476;5.702;2023-04-15T09:02:23;17.30;92.20
42333;DHT22;27984;51.476;5.702;2023-04-15T09:04:48;17.30;91.00
42333;DHT22;27984;51.476;5.702;2023-04-15T09:07:14;17.00;91.30
42333;DHT22;27984;51.476;5.702;2023-04-15T09:09:40;17.10;92.60
42333;DHT22;27984;51.476;5.702;2023-04-15T09:12:07;17.20;91.50
42333;DHT22;27984;51.476;5.702;2023-04-15T09:14:33;17.80;91.40
42333;DHT22;27984;51.476;5.702;2023-04-15T09:17:01;17.70;91.10
42333;DHT22;27984;51.476;5.702;2023-04-15T09:19:27;18.10;90.90
42333;DHT22;27984;51.476;5.702;2023-04-15T09:21:54;18.20;90.20
42333;DHT22;27984;51.476;5.702;2023-04-15T09:24:23;18.50;90.20
42333;DHT22;27984;51.476;5.702;2023-04-15T09:26:54;18.60;90.20
42333;DHT22;27984;51.476;5.702;2023-04-15T09:29:24;18.60;87.10
42333;DHT22;27984;51.476;5.702;2023-04-15T09:31:51;18.60;86.40
42333;DHT22;27984;51.476;5.702;2023-04-15T09:34:17;18.50;88.40
42333;DHT22;27984;51.476;5.702;2023-04-15T09:39:11;17.60;86.80
42333;DHT22;27984;51.476;5.702;2023-04-15T09:41:37;18.30;88.60
42333;DHT22;27984;51.476;5.702;2023-04-15T09:44:03;18.10;86.40
42333;DHT22;27984;51.476;5.702;2023-04-15T09:46:43;17.20;87.70
42333;DHT22;27984;51.476;5.702;2023-04-15T09:49:10;16.90;88.20
42333;DHT22;27984;51.476;5.702;2023-04-15T09:51:36;17.10;89.30
42333;DHT22;27984;51.476;5.702;2023-04-15T09:54:02;17.60;88.90
42333;DHT22;27984;51.476;5.702;2023-04-15T09:56:35;17.10;88.20
42333;DHT22;27984;51.476;5.702;2023-04-15T09:59:02;16.80;90.30
42333;DHT22;27984;51.476;5.702;2023-04-15T10:01:27;17.40;90.10
42333;DHT22;27984;51.476;5.702;2023-04-15T10:03:55;16.80;88.80
42333;DHT22;27984;51.476;5.702;2023-04-15T10:06:23;16.90;90.60
42333;DHT22;27984;51.476;5.702;2023-04-15T10:08:50;17.50;90.00
42333;DHT22;27984;51.476;5.702;2023-04-15T10:11:17;18.20;89.30
42333;DHT22;27984;51.476;5.702;2023-04-15T10:13:44;18.40;88.10
42333;DHT22;27984;51.476;5.702;2023-04-15T10:16:13;18.50;87.70
42333;DHT22;27984;51.476;5.702;2023-04-15T10:18:45;18.50;87.10
42333;DHT22;27984;51.476;5.702;2023-04-15T10:21:11;18.30;86.10
42333;DHT22;27984;51.476;5.702;2023-04-15T10:23:44;18.30;84.50
42333;DHT22;27984;51.476;5.702;2023-04-15T10:26:10;18.10;84.40
42333;DHT22;27984;51.476;5.702;2023-04-15T10:28:37;17.60;86.00
42333;DHT22;27984;51.476;5.702;2023-04-15T10:31:04;17.60;83.90
42333;DHT22;27984;51.476;5.702;2023-04-15T10:33:30;16.90;85.00
42333;DHT22;27984;51.476;5.702;2023-04-15T10:35:56;16.90;86.10
42333;DHT22;27984;51.476;5.702;2023-04-15T10:38:40;17.30;87.40
42333;DHT22;27984;51.476;5.702;2023-04-15T10:41:23;17.20;88.20
42333;DHT22;27984;51.476;5.702;2023-04-15T10:44:03;18.00;87.50
42333;DHT22;27984;51.476;5.702;2023-04-15T10:46:40;18.20;85.50
42333;DHT22;27984;51.476;5.702;2023-04-15T10:51:40;18.10;83.60
42333;DHT22;27984;51.476;5.702;2023-04-15T10:54:13;17.70;82.20
42333;DHT22;27984;51.476;5.702;2023-04-15T10:56:44;17.50;83.70
42333;DHT22;27984;51.476;5.702;2023-04-15T10:59:09;17.30;85.80
42333;DHT22;27984;51.476;5.702;2023-04-15T11:01:54;18.00;85.20
42333;DHT22;27984;51.476;5.702;2023-04-15T11:04:56;18.00;83.40
42333;DHT22;27984;51.476;5.702;2023-04-15T11:07:46;17.90;84.50
42333;DHT22;27984;51.476;5.702;2023-04-15T11:12:39;17.90;82.80
42333;DHT22;27984;51.476;5.702;2023-04-15T11:18:11;17.40;83.70
42333;DHT22;27984;51.476;5.702;2023-04-15T11:20:41;17.20;85.00
42333;DHT22;27984;51.476;5.702;2023-04-15T11:23:08;16.80;85.40
42333;DHT22;27984;51.476;5.702;2023-04-15T11:25:34;16.80;87.70
42333;DHT22;27984;51.476;5.702;2023-04-15T11:28:04;17.30;89.80
42333;DHT22;27984;51.476;5.702;2023-04-15T11:30:35;17.50;87.10
42333;DHT22;27984;51.476;5.702;2023-04-15T11:33:08;17.20;87.50
42333;DHT22;27984;51.476;5.702;2023-04-15T11:35:35;16.80;89.00
42333;DHT22;27984;51.476;5.702;2023-04-15T11:38:04;16.30;90.60
42333;DHT22;27984;51.476;5.702;2023-04-15T11:40:33;16.40;90.50
42333;DHT22;27984;51.476;5.702;2023-04-15T11:43:09;16.70;91.00
42333;DHT22;27984;51.476;5.702;2023-04-15T11:45:36;17.10;87.80
42333;DHT22;27984;51.476;5.702;2023-04-15T11:48:09;17.30;86.80
42333;DHT22;27984;51.476;5.702;2023-04-15T11:50:36;17.20;87.90
42333;DHT22;27984;51.476;5.702;2023-04-15T11:53:07;16.90;88.30
42333;DHT22;27984;51.476;5.702;2023-04-15T11:55:46;17.20;89.90
42333;DHT22;27984;51.476;5.702;2023-04-15T11:58:19;17.30;87.80
42333;DHT22;27984;51.476;5.702;2023-04-15T12:01:06;17.10;89.00
42333;DHT22;27984;51.476;5.702;2023-04-15T12:03:46;16.70;88.40
42333;DHT22;27984;51.476;5.702;2023-04-15T12:06:24;16.80;89.40
42333;DHT22;27984;51.476;5.702;2023-04-15T12:09:11;17.30;89.60
42333;DHT22;27984;51.476;5.702;2023-04-15T12:11:48;17.20;87.50
42333;DHT22;27984;51.476;5.702;2023-04-15T12:14:26;17.30;87.00
42333;DHT22;27984;51.476;5.702;2023-04-15T12:16:57;18.10;85.90
42333;DHT22;27984;51.476;5.702;2023-04-15T12:19:35;18.80;86.30
42333;DHT22;27984;51.476;5.702;2023-04-15T12:22:04;19.40;84.30
42333;DHT22;27984;51.476;5.702;2023-04-15T12:24:32;19.60;81.10
42333;DHT22;27984;51.476;5.702;2023-04-15T12:27:01;19.20;81.90
42333;DHT22;27984;51.476;5.702;2023-04-15T12:29:29;19.20;83.00
42333;DHT22;27984;51.476;5.702;2023-04-15T12:32:15;19.10;84.40
42333;DHT22;27984;51.476;5.702;2023-04-15T12:34:49;18.90;83.70
42333;DHT22;27984;51.476;5.702;2023-04-15T12:37:15;19.00;83.50
42333;DHT22;27984;51.476;5.702;2023-04-15T12:39:43;19.10;81.30
42333;DHT22;27984;51.476;5.702;2023-04-15T12:42:09;19.00;81.50
42333;DHT22;27984;51.476;5.702;2023-04-15T12:44:36;18.80;82.90
42333;DHT22;27984;51.476;5.702;2023-04-15T12:47:02;18.00;84.10
42333;DHT22;27984;51.476;5.702;2023-04-15T12:49:28;17.80;85.30
42333;DHT22;27984;51.476;5.702;2023-04-15T12:51:58;17.70;86.10
42333;DHT22;27984;51.476;5.702;2023-04-15T12:54:27;18.10;83.70
42333;DHT22;27984;51.476;5.702;2023-04-15T12:56:54;18.00;84.40
42333;DHT22;27984;51.476;5.702;2023-04-15T12:59:20;18.00;85.90
42333;DHT22;27984;51.476;5.702;2023-04-15T13:01:46;18.40;83.80
42333;DHT22;27984;51.476;5.702;2023-04-15T13:04:13;18.30;84.30
42333;DHT22;27984;51.476;5.702;2023-04-15T13:06:38;18.10;84.90
42333;DHT22;27984;51.476;5.702;2023-04-15T13:09:04;18.50;85.00
42333;DHT22;27984;51.476;5.702;2023-04-15T13:11:30;19.10;85.20
42333;DHT22;27984;51.476;5.702;2023-04-15T13:14:05;19.30;82.90
42333;DHT22;27984;51.476;5.702;2023-04-15T13:16:31;18.40;83.60
42333;DHT22;27984;51.476;5.702;2023-04-15T13:18:58;17.80;84.90
42333;DHT22;27984;51.476;5.702;2023-04-15T13:21:23;17.80;84.40
42333;DHT22;27984;51.476;5.702;2023-04-15T13:23:49;17.60;83.30
42333;DHT22;27984;51.476;5.702;2023-04-15T13:26:16;17.20;85.30
42333;DHT22;27984;51.476;5.702;2023-04-15T13:28:41;17.40;85.90
42333;DHT22;27984;51.476;5.702;2023-04-15T13:31:07;17.40;87.40
42333;DHT22;27984;51.476;5.702;2023-04-15T13:33:33;17.30;87.50
42333;DHT22;27984;51.476;5.702;2023-04-15T13:36:18;17.60;87.60
42333;DHT22;27984;51.476;5.702;2023-04-15T13:42:45;19.30;83.20
42333;DHT22;27984;51.476;5.702;2023-04-15T13:45:11;19.10;80.90
42333;DHT22;27984;51.476;5.702;2023-04-15T13:47:37;19.20;81.10
42333;DHT22;27984;51.476;5.702;2023-04-15T13:50:03;19.30;79.20
42333;DHT22;27984;51.476;5.702;2023-04-15T13:52:28;18.90;81.20
42333;DHT22;27984;51.476;5.702;2023-04-15T13:54:54;18.40;82.20
42333;DHT22;27984;51.476;5.702;2023-04-15T13:57:20;18.50;84.40
42333;DHT22;27984;51.476;5.702;2023-04-15T13:59:45;18.60;82.60
42333;DHT22;27984;51.476;5.702;2023-04-15T14:02:11;19.30;81.20
42333;DHT22;27984;51.476;5.702;2023-04-15T14:04:37;18.40;82.30
42333;DHT22;27984;51.476;5.702;2023-04-15T14:07:02;17.80;85.50
42333;DHT22;27984;51.476;5.702;2023-04-15T14:09:28;17.70;85.20
42333;DHT22;27984;51.476;5.702;2023-04-15T14:11:54;17.70;85.50
42333;DHT22;27984;51.476;5.702;2023-04-15T14:14:20;17.40;87.20
42333;DHT22;27984;51.476;5.702;2023-04-15T14:16:46;17.00;87.90
42333;DHT22;27984;51.476;5.702;2023-04-15T14:19:13;17.00;90.00
42333;DHT22;27984;51.476;5.702;2023-04-15T14:21:38;16.80;89.80
42333;DHT22;27984;51.476;5.702;2023-04-15T14:24:04;17.20;88.20
42333;DHT22;27984;51.476;5.702;2023-04-15T14:26:30;17.00;88.70
42333;DHT22;27984;51.476;5.702;2023-04-15T14:28:55;16.70;88.40
42333;DHT22;27984;51.476;5.702;2023-04-15T14:31:21;16.60;89.80
42333;DHT22;27984;51.476;5.702;2023-04-15T14:33:46;16.80;89.60
42333;DHT22;27984;51.476;5.702;2023-04-15T14:36:12;16.80;88.00
42333;DHT22;27984;51.476;5.702;2023-04-15T14:38:37;16.60;88.80
42333;DHT22;27984;51.476;5.702;2023-04-15T14:41:05;16.50;90.20
42333;DHT22;27984;51.476;5.702;2023-04-15T14:43:31;16.30;89.90
42333;DHT22;27984;51.476;5.702;2023-04-15T14:45:56;16.50;90.20
42333;DHT22;27984;51.476;5.702;2023-04-15T14:48:22;16.30;90.50
42333;DHT22;27984;51.476;5.702;2023-04-15T14:50:47;16.60;88.90
42333;DHT22;27984;51.476;5.702;2023-04-15T14:53:13;16.90;88.70
42333;DHT22;27984;51.476;5.702;2023-04-15T14:55:39;16.80;88.90
42333;DHT22;27984;51.476;5.702;2023-04-15T14:58:05;16.70;89.50
42333;DHT22;27984;51.476;5.702;2023-04-15T15:00:32;16.40;89.50
42333;DHT22;27984;51.476;5.702;2023-04-15T15:02:58;16.20;90.30
42333;DHT22;27984;51.476;5.702;2023-04-15T15:05:23;15.90;90.60
42333;DHT22;27984;51.476;5.702;2023-04-15T15:07:49;15.40;91.60
42333;DHT22;27984;51.476;5.702;2023-04-15T15:12:50;15.00;93.70
42333;DHT22;27984;51.476;5.702;2023-04-15T15:15:15;14.90;93.10
42333;DHT22;27984;51.476;5.702;2023-04-15T15:17:41;14.80;93.40
42333;DHT22;27984;51.476;5.702;2023-04-15T15:20:06;14.90;93.60
42333;DHT22;27984;51.476;5.702;2023-04-15T15:22:32;15.00;93.20
42333;DHT22;27984;51.476;5.702;2023-04-15T15:24:58;14.90;93.70
42333;DHT22;27984;51.476;5.702;2023-04-15T15:27:24;15.00;94.60
42333;DHT22;27984;51.476;5.702;2023-04-15T15:29:49;15.00;95.10
42333;DHT22;27984;51.476;5.702;2023-04-15T15:32:15;14.90;95.00
42333;DHT22;27984;51.476;5.702;2023-04-15T15:34:40;14.90;94.90
42333;DHT22;27984;51.476;5.702;2023-04-15T15:37:06;14.80;95.00
42333;DHT22;27984;51.476;5.702;2023-04-15T15:39:31;14.70;95.60
42333;DHT22;27984;51.476;5.702;2023-04-15T15:41:58;14.60;96.20
42333;DHT22;27984;51.476;5.702;2023-04-15T15:44:23;14.50;97.20
42333;DHT22;27984;51.476;5.702;2023-04-15T15:46:49;14.20;97.70
42333;DHT22;27984;51.476;5.702;2023-04-15T15:49:15;14.30;97.80
42333;DHT22;27984;51.476;5.702;2023-04-15T15:51:40;14.30;97.70
42333;DHT22;27984;51.476;5.702;2023-04-15T15:54:06;14.40;97.60